Terminal Aerodrome Forecast
Issued by NWS

Home | Current Version | Previous Version | Text Only | Print | Product List | Glossary On
Versions: 1 2 3 4 5 6 7 8 9 10 11 12 13 14
000
FTUS43 KDTX 240536
TAFDET
TAF
KDET 240536Z 2406/2506 18007KT P6SM BKN250
     FM241600 20010KT P6SM -SHRA SCT050 OVC100
     FM242000 22013G20KT 6SM -SHRA BKN040 OVC080 PROB30 2420/2424
      3SM TSRA OVC030CB=

USA.gov is the U.S. government's official web portal to all federal, state and local government web resources and services.